Time;durP1;ratioP1;P1;durP2;ratioP2;P2;SDS_P1;SDS_P2;PMS_P1;PMS_P2;Temp;Humidity;BMP_temperature;BMP_pressure;BME280_temperature;BME280_humidity;BME280_pressure;Samples;Min_cycle;Max_cycle;Signal;HPM_P1;HPM_P2
2022/11/19 00:00:13;;;;;;;1.40;1.30;;;;;;;10.70;100.00;98004.03;5112278;28;20806;-58
2022/11/19 00:02:40;;;;;;;1.90;1.63;;;;;;;10.64;100.00;97998.50;5112109;28;20671;-65
2022/11/19 00:05:07;;;;;;;1.50;1.37;;;;;;;10.60;100.00;97994.63;5111797;28;20235;-64
2022/11/19 00:07:34;;;;;;;1.63;1.37;;;;;;;10.63;100.00;97991.00;5111935;28;20205;-59
2022/11/19 00:10:01;;;;;;;2.70;1.80;;;;;;;10.61;100.00;98001.34;5111808;28;20579;-64
2022/11/19 00:15:13;;;;;;;2.80;1.80;;;;;;;10.61;100.00;98029.47;5111767;28;20208;-65
2022/11/19 00:17:40;;;;;;;2.67;1.27;;;;;;;10.69;100.00;98038.22;5111396;28;20198;-64
2022/11/19 00:20:08;;;;;;;1.50;1.40;;;;;;;10.63;100.00;98035.25;5111632;28;20201;-64
2022/11/19 00:22:35;;;;;;;2.23;1.27;;;;;;;10.61;100.00;98031.22;5111627;28;20579;-58
2022/11/19 00:25:02;;;;;;;2.30;1.93;;;;;;;10.62;100.00;98033.66;5111858;28;20212;-65
2022/11/19 00:27:31;;;;;;;3.47;2.13;;;;;;;10.69;100.00;98038.22;5111454;28;20226;-58
2022/11/19 00:29:57;;;;;;;1.13;1.03;;;;;;;10.69;100.00;98033.09;5111294;28;20263;-64
2022/11/19 00:32:24;;;;;;;2.00;1.80;;;;;;;10.61;100.00;98049.91;5111508;27;20201;-58
2022/11/19 00:34:51;;;;;;;4.67;1.57;;;;;;;10.57;100.00;98051.13;5111366;28;20317;-64
2022/11/19 00:37:18;;;;;;;1.27;0.90;;;;;;;10.57;100.00;98051.13;5111227;28;20205;-58
2022/11/19 00:39:44;;;;;;;1.07;0.87;;;;;;;10.48;100.00;98049.41;5110920;28;20220;-58
2022/11/19 00:42:11;;;;;;;0.97;0.87;;;;;;;10.44;100.00;98055.69;5111010;28;20197;-63
2022/11/19 00:44:39;;;;;;;2.20;1.33;;;;;;;10.46;100.00;98043.59;5110812;28;20217;-58
2022/11/19 00:47:06;;;;;;;2.10;1.57;;;;;;;10.51;100.00;98045.75;5110370;28;20251;-58
2022/11/19 00:49:33;;;;;;;3.07;1.77;;;;;;;10.34;100.00;98049.81;5110833;28;20354;-64
2022/11/19 00:52:00;;;;;;;2.43;1.50;;;;;;;10.44;100.00;98065.91;5111403;28;20193;-58
2022/11/19 00:54:26;;;;;;;2.10;1.13;;;;;;;10.46;100.00;98069.16;5110875;28;20244;-58
2022/11/19 00:56:53;;;;;;;2.60;1.40;;;;;;;10.35;100.00;98076.94;5110996;28;20193;-64
2022/11/19 00:59:20;;;;;;;2.57;2.03;;;;;;;10.38;100.00;98071.56;5110777;28;20358;-64
2022/11/19 01:01:48;;;;;;;1.17;0.80;;;;;;;10.38;100.00;98081.78;5110693;28;20204;-64
2022/11/19 01:04:15;;;;;;;2.43;1.73;;;;;;;10.36;100.00;98088.81;5110836;28;20225;-58
2022/11/19 01:06:41;;;;;;;1.20;1.10;;;;;;;10.54;100.00;98092.28;5110682;28;20212;-64
2022/11/19 01:09:08;;;;;;;2.07;1.53;;;;;;;10.36;100.00;98089.59;5110962;28;20648;-58
2022/11/19 01:11:37;;;;;;;2.17;1.97;;;;;;;10.42;100.00;98099.28;5110639;28;20220;-58
2022/11/19 01:14:05;;;;;;;1.67;1.20;;;;;;;10.44;100.00;98096.59;5110351;28;20233;-64
2022/11/19 01:16:34;;;;;;;1.53;1.43;;;;;;;10.49;100.00;98109.78;5110676;28;20721;-64
2022/11/19 01:19:02;;;;;;;9.20;1.77;;;;;;;10.51;100.00;98107.91;5110666;28;20278;-64
2022/11/19 01:21:32;;;;;;;5.23;1.63;;;;;;;10.56;100.00;98115.16;5110659;28;20665;-64
2022/11/19 01:23:59;;;;;;;2.77;1.27;;;;;;;10.47;100.00;98119.34;5110783;28;20232;-58
2022/11/19 01:26:26;;;;;;;2.53;1.67;;;;;;;10.39;100.00;98129.41;5110686;28;20681;-58
2022/11/19 01:28:54;;;;;;;4.50;1.20;;;;;;;10.46;100.00;98143.25;5110374;28;20239;-64
2022/11/19 01:31:22;;;;;;;5.10;1.10;;;;;;;10.45;100.00;98140.84;5110399;28;20204;-59
2022/11/19 01:33:49;;;;;;;1.60;1.40;;;;;;;10.50;100.00;98128.47;5109891;28;20262;-64
2022/11/19 01:36:19;;;;;;;0.77;0.77;;;;;;;10.51;100.00;98135.22;5110395;28;20653;-58
2022/11/19 01:38:49;;;;;;;2.00;1.23;;;;;;;10.53;100.00;98141.81;5110101;28;20258;-58
2022/11/19 01:41:16;;;;;;;2.67;2.20;;;;;;;10.55;100.00;98139.91;5110799;28;20201;-58
2022/11/19 01:43:45;;;;;;;1.17;1.07;;;;;;;10.40;100.00;98148.91;5110051;28;20278;-63
2022/11/19 01:46:14;;;;;;;1.50;1.20;;;;;;;10.30;100.00;98150.66;5110028;28;20193;-64
2022/11/19 01:48:46;;;;;;;0.97;0.80;;;;;;;10.28;100.00;98143.13;5110097;28;20213;-58
2022/11/19 01:51:16;;;;;;;2.00;1.37;;;;;;;10.32;100.00;98149.56;5110224;28;20197;-64
2022/11/19 01:53:47;;;;;;;2.90;1.77;;;;;;;10.29;100.00;98154.94;5110132;28;20236;-58
2022/11/19 01:56:15;;;;;;;1.27;0.87;;;;;;;10.28;100.00;98160.19;5110614;28;20255;-58
2022/11/19 01:58:45;;;;;;;1.13;0.97;;;;;;;10.28;100.00;98162.75;5114350;28;20228;-64
2022/11/19 02:01:13;;;;;;;1.17;0.70;;;;;;;10.29;100.00;98177.13;5114108;28;20204;-58
2022/11/19 02:03:40;;;;;;;7.47;1.93;;;;;;;10.25;100.00;98175.75;5113972;28;20221;-58
2022/11/19 02:06:08;;;;;;;1.00;0.90;;;;;;;10.31;100.00;98177.81;5114040;28;20686;-58
2022/11/19 02:08:39;;;;;;;1.00;0.80;;;;;;;10.19;100.00;98174.53;5113924;28;20304;-58
2022/11/19 02:11:37;;;;;;;1.07;0.80;;;;;;;10.23;100.00;98169.97;5114300;28;20650;-64
2022/11/19 02:14:17;;;;;;;3.00;1.50;;;;;;;10.07;100.00;98176.38;5114228;28;20232;-64
2022/11/19 02:16:54;;;;;;;2.00;1.50;;;;;;;10.10;100.00;98185.53;5114185;28;20198;-58
2022/11/19 02:19:44;;;;;;;1.80;1.40;;;;;;;10.07;100.00;98186.59;5113916;28;20282;-64
2022/11/19 02:22:25;;;;;;;2.37;1.00;;;;;;;10.09;100.00;98177.03;5113748;27;20204;-64
2022/11/19 02:24:53;;;;;;;1.83;1.00;;;;;;;9.93;100.00;98189.50;5113920;28;20760;-64
2022/11/19 02:28:01;;;;;;;1.13;1.07;;;;;;;9.84;100.00;98203.03;5113785;28;20189;-64
2022/11/19 02:30:35;;;;;;;1.60;1.50;;;;;;;9.77;100.00;98194.25;5096705;28;20564;-64
2022/11/19 02:33:08;;;;;;;1.87;0.93;;;;;;;9.82;100.00;98192.94;5113810;28;20224;-58
2022/11/19 02:35:46;;;;;;;2.50;1.10;;;;;;;9.79;100.00;98200.06;5113776;28;20237;-64
2022/11/19 02:38:22;;;;;;;1.30;0.93;;;;;;;9.82;100.00;98204.91;5113493;28;20213;-64
2022/11/19 02:40:52;;;;;;;1.03;1.00;;;;;;;9.73;100.00;98211.59;5113430;28;20220;-58
2022/11/19 02:43:24;;;;;;;1.10;1.00;;;;;;;9.79;100.00;98208.53;5113591;28;20619;-58
2022/11/19 02:45:59;;;;;;;2.33;1.10;;;;;;;9.65;100.00;98226.72;5113480;28;20201;-58
2022/11/19 02:48:30;;;;;;;2.83;1.90;;;;;;;9.78;100.00;98221.44;5113170;28;20712;-58
2022/11/19 02:51:00;;;;;;;0.90;0.77;;;;;;;9.64;100.00;98236.13;5113317;28;20194;-64
2022/11/19 02:53:27;;;;;;;2.63;1.47;;;;;;;9.62;100.00;98248.19;5113542;28;20267;-58
2022/11/19 03:04:31;;;;;;;0.83;0.67;;;;;;;9.49;100.00;98283.31;5113207;28;20223;-64
2022/11/19 03:07:03;;;;;;;0.80;0.80;;;;;;;9.27;100.00;98277.34;5113220;28;20660;-64
2022/11/19 03:09:32;;;;;;;2.17;0.80;;;;;;;9.32;100.00;98271.09;5111982;28;20225;-58
2022/11/19 03:12:05;;;;;;;0.90;0.90;;;;;;;9.33;100.00;98278.63;5113485;28;20208;-57
2022/11/19 03:17:40;;;;;;;0.57;0.57;;;;;;;9.33;100.00;98295.66;5073316;28;20221;-58
2022/11/19 03:20:15;;;;;;;1.73;1.50;;;;;;;9.33;100.00;98313.50;5112824;28;20200;-57
2022/11/19 03:22:51;;;;;;;0.80;0.80;;;;;;;9.23;100.00;98314.25;5112656;28;20204;-63
2022/11/19 03:25:22;;;;;;;0.77;0.77;;;;;;;9.28;100.00;98317.25;5112687;28;20200;-58
2022/11/19 03:27:52;;;;;;;1.10;1.03;;;;;;;9.25;100.00;98327.69;5112462;28;20321;-58
2022/11/19 03:30:20;;;;;;;1.50;1.30;;;;;;;9.24;100.00;98325.25;5112391;28;20675;-58
2022/11/19 03:32:54;;;;;;;1.43;1.00;;;;;;;9.24;100.00;98326.06;5112247;28;20205;-58
2022/11/19 03:35:26;;;;;;;0.83;0.83;;;;;;;9.16;100.00;98328.44;5112787;27;20233;-58
2022/11/19 03:37:57;;;;;;;1.43;0.80;;;;;;;9.16;100.00;98333.53;5112113;28;20669;-64
2022/11/19 03:40:27;;;;;;;0.63;0.63;;;;;;;9.20;100.00;98331.53;5112416;28;20216;-59
2022/11/19 03:42:56;;;;;;;1.40;0.97;;;;;;;9.25;100.00;98334.53;5112213;28;20781;-58
2022/11/19 03:45:28;;;;;;;0.40;0.40;;;;;;;9.24;100.00;98336.25;5112065;28;20208;-64
2022/11/19 03:47:58;;;;;;;0.63;0.63;;;;;;;9.24;100.00;98346.47;5111921;28;20229;-64
2022/11/19 03:50:29;;;;;;;0.53;0.53;;;;;;;9.29;100.00;98349.47;5112381;28;20579;-62
2022/11/19 03:52:58;;;;;;;1.43;1.00;;;;;;;9.35;100.00;98352.47;5112252;28;20229;-57
2022/11/19 03:55:31;;;;;;;1.17;0.87;;;;;;;9.33;100.00;98354.34;5111892;28;20324;-57
2022/11/19 03:58:02;;;;;;;0.57;0.57;;;;;;;9.28;100.00;98354.72;5112106;28;20221;-58
2022/11/19 04:00:29;;;;;;;0.73;0.73;;;;;;;9.30;100.00;98360.47;5111969;28;20316;-63
2022/11/19 04:02:57;;;;;;;2.40;1.37;;;;;;;9.26;100.00;98375.22;5111786;28;20236;-58
2022/11/19 04:05:24;;;;;;;0.40;0.40;;;;;;;9.32;100.00;98368.03;5111738;28;20198;-64
2022/11/19 04:07:51;;;;;;;1.03;0.93;;;;;;;9.29;100.00;98367.34;5111481;28;20197;-64
2022/11/19 04:10:17;;;;;;;0.57;0.30;;;;;;;9.27;100.00;98392.13;5111634;28;20189;-57
2022/11/19 04:12:44;;;;;;;1.37;1.27;;;;;;;9.28;100.00;98393.78;5111844;28;20197;-63
2022/11/19 04:15:11;;;;;;;1.23;1.13;;;;;;;9.34;100.00;98401.88;5111572;28;20293;-58
2022/11/19 04:17:38;;;;;;;1.03;0.50;;;;;;;9.33;100.00;98395.16;5111591;28;20208;-64
2022/11/19 04:20:08;;;;;;;0.83;0.70;;;;;;;9.42;100.00;98389.31;5111471;28;20197;-58
2022/11/19 04:22:35;;;;;;;2.03;1.10;;;;;;;9.45;100.00;98389.06;5111645;28;20202;-58
2022/11/19 04:25:02;;;;;;;1.07;1.00;;;;;;;9.46;100.00;98378.75;5111463;28;20688;-64
2022/11/19 04:27:29;;;;;;;1.40;1.20;;;;;;;9.42;100.00;98382.47;5111578;28;20201;-58
2022/11/19 04:29:56;;;;;;;1.87;0.93;;;;;;;9.44;100.00;98393.38;5110996;28;20217;-58
2022/11/19 04:32:22;;;;;;;1.20;1.10;;;;;;;9.47;100.00;98405.09;5111427;28;20276;-64
2022/11/19 04:34:49;;;;;;;0.47;0.43;;;;;;;9.51;100.00;98409.00;5111098;28;20235;-63
2022/11/19 04:37:17;;;;;;;0.50;0.50;;;;;;;9.31;100.00;98418.25;5111488;28;20258;-58
2022/11/19 04:39:44;;;;;;;0.50;0.50;;;;;;;9.27;100.00;98435.50;5111005;28;20224;-64
2022/11/19 04:42:11;;;;;;;1.23;1.00;;;;;;;9.30;100.00;98442.91;5111038;28;20194;-58
2022/11/19 04:44:38;;;;;;;0.60;0.60;;;;;;;9.42;100.00;98440.34;5111048;28;20228;-64
2022/11/19 04:47:04;;;;;;;0.37;0.37;;;;;;;9.34;100.00;98450.31;5111069;28;20201;-58
2022/11/19 04:49:31;;;;;;;0.63;0.63;;;;;;;9.23;100.00;98453.72;5111204;28;20688;-64
2022/11/19 04:51:58;;;;;;;0.53;0.53;;;;;;;9.22;100.00;98454.63;5111031;28;20208;-64
2022/11/19 04:54:26;;;;;;;0.43;0.43;;;;;;;9.24;100.00;98456.16;5110788;28;20257;-64
2022/11/19 04:56:53;;;;;;;1.10;0.57;;;;;;;9.27;100.00;98468.66;5110817;28;20205;-58
2022/11/19 04:59:19;;;;;;;1.07;0.97;;;;;;;9.35;100.00;98474.94;5111055;28;20223;-57
2022/11/19 05:01:48;;;;;;;0.87;0.83;;;;;;;9.32;100.00;98478.53;5110945;28;20201;-58
2022/11/19 05:04:15;;;;;;;0.50;0.50;;;;;;;9.32;100.00;98488.72;5110533;28;20709;-58
2022/11/19 05:06:41;;;;;;;1.70;0.50;;;;;;;9.25;100.00;98501.16;5110480;28;20202;-64
2022/11/19 05:09:08;;;;;;;0.73;0.60;;;;;;;9.27;100.00;98494.16;5111083;28;20228;-58
2022/11/19 05:11:36;;;;;;;0.97;0.90;;;;;;;9.18;100.00;98505.06;5110918;28;20274;-64
2022/11/19 05:14:03;;;;;;;1.07;0.97;;;;;;;9.22;100.00;98503.94;5110875;28;20229;-64
2022/11/19 05:16:30;;;;;;;2.40;1.10;;;;;;;9.24;100.00;98504.59;5110654;28;20202;-58
2022/11/19 05:18:57;;;;;;;1.63;0.73;;;;;;;9.22;100.00;98521.78;5110605;28;20221;-57
2022/11/19 05:21:23;;;;;;;1.13;0.40;;;;;;;9.23;100.00;98522.59;5110398;28;20189;-58
2022/11/19 05:23:50;;;;;;;0.93;0.67;;;;;;;9.27;100.00;98534.97;5110463;28;20310;-58
2022/11/19 05:26:17;;;;;;;2.33;0.50;;;;;;;9.27;100.00;98540.09;5110370;28;20234;-58
2022/11/19 05:28:45;;;;;;;2.00;0.70;;;;;;;9.33;100.00;98548.22;5109970;28;20228;-64
2022/11/19 05:31:12;;;;;;;0.73;0.60;;;;;;;9.36;100.00;98550.53;5109681;28;20200;-58
2022/11/19 05:33:38;;;;;;;0.83;0.73;;;;;;;9.35;100.00;98547.16;5110322;28;20236;-64
2022/11/19 05:36:06;;;;;;;1.17;0.70;;;;;;;9.42;100.00;98558.53;5110510;28;20310;-64
2022/11/19 05:38:33;;;;;;;0.80;0.80;;;;;;;9.49;100.00;98551.22;5110252;28;20647;-58
2022/11/19 05:40:59;;;;;;;0.53;0.53;;;;;;;9.50;100.00;98550.28;5110232;28;20201;-57
2022/11/19 05:43:26;;;;;;;1.07;0.70;;;;;;;9.52;100.00;98553.53;5110037;28;20225;-64
2022/11/19 05:45:55;;;;;;;1.37;0.97;;;;;;;9.58;100.00;98552.28;5110131;28;20303;-64
2022/11/19 05:48:21;;;;;;;0.53;0.53;;;;;;;9.58;100.00;98573.50;5109868;28;20221;-58
2022/11/19 05:50:48;;;;;;;0.93;0.37;;;;;;;9.74;100.00;98575.66;5110180;28;20287;-64
2022/11/19 05:53:15;;;;;;;2.33;0.93;;;;;;;9.71;100.00;98573.34;5110237;28;20221;-64
2022/11/19 05:55:41;;;;;;;1.73;1.03;;;;;;;9.80;100.00;98582.84;5110006;28;20228;-58
2022/11/19 05:58:08;;;;;;;0.87;0.70;;;;;;;9.83;100.00;98597.13;5110153;28;20587;-58
2022/11/19 06:00:35;;;;;;;0.93;0.83;;;;;;;9.86;100.00;98600.28;5109913;28;20243;-58
2022/11/19 06:03:03;;;;;;;1.07;0.97;;;;;;;9.92;100.00;98601.53;5110293;28;20217;-58
2022/11/19 06:05:30;;;;;;;0.93;0.77;;;;;;;9.94;100.00;98599.66;5110064;28;20216;-64
2022/11/19 06:07:57;;;;;;;1.40;1.13;;;;;;;9.92;100.00;98599.81;5110103;28;20217;-58
2022/11/19 06:10:24;;;;;;;0.93;0.70;;;;;;;9.96;100.00;98608.03;5110057;28;20205;-58
2022/11/19 06:12:51;;;;;;;0.90;0.90;;;;;;;10.06;100.00;98603.81;5110108;28;20761;-64
2022/11/19 06:15:18;;;;;;;2.17;0.70;;;;;;;10.01;100.00;98611.03;5109746;28;20225;-58
2022/11/19 06:17:44;;;;;;;1.77;1.33;;;;;;;10.08;100.00;98616.47;5109808;28;20288;-64
2022/11/19 06:20:12;;;;;;;3.20;1.53;;;;;;;10.09;100.00;98618.91;5109810;28;20234;-64
2022/11/19 06:22:39;;;;;;;0.77;0.77;;;;;;;10.13;100.00;98635.63;5109676;28;20193;-58
2022/11/19 06:25:07;;;;;;;2.47;0.80;;;;;;;10.07;100.00;98636.09;5109936;28;20233;-59
2022/11/19 06:27:34;;;;;;;1.67;1.07;;;;;;;10.24;100.00;98646.75;5109692;28;20287;-58
2022/11/19 06:30:01;;;;;;;0.70;0.70;;;;;;;10.35;100.00;98645.00;5109739;28;20284;-64
2022/11/19 06:32:28;;;;;;;1.00;0.90;;;;;;;10.45;100.00;98645.13;5109936;28;20198;-64
2022/11/19 06:34:54;;;;;;;0.80;0.80;;;;;;;10.48;100.00;98654.28;5110028;28;20237;-58
2022/11/19 06:37:23;;;;;;;2.43;1.20;;;;;;;10.52;100.00;98651.34;5109686;28;20258;-58
2022/11/19 06:39:50;;;;;;;0.70;0.63;;;;;;;10.49;100.00;98661.81;5109468;28;20221;-58
2022/11/19 06:45:00;;;;;;;2.27;1.17;;;;;;;10.46;100.00;98656.94;5112916;28;20695;-64
2022/11/19 06:47:29;;;;;;;4.20;1.40;;;;;;;10.50;100.00;98660.91;5113377;28;20719;-59
2022/11/19 06:49:56;;;;;;;1.33;1.00;;;;;;;10.49;100.00;98674.59;5113126;27;20221;-58
2022/11/19 06:52:24;;;;;;;2.47;1.20;;;;;;;10.51;100.00;98682.16;5113410;28;20209;-64
2022/11/19 06:54:51;;;;;;;0.87;0.50;;;;;;;10.54;100.00;98679.34;5113388;28;20736;-63
2022/11/19 06:57:17;;;;;;;1.57;1.33;;;;;;;10.59;100.00;98688.28;5113525;28;20190;-64
2022/11/19 06:59:44;;;;;;;0.70;0.70;;;;;;;10.74;100.00;98685.47;5113052;28;20276;-64
2022/11/19 07:02:12;;;;;;;2.90;1.33;;;;;;;10.81;100.00;98689.94;5113182;28;20204;-58
2022/11/19 07:04:38;;;;;;;2.33;0.83;;;;;;;10.86;100.00;98700.63;5112957;28;20316;-64
2022/11/19 07:07:06;;;;;;;0.63;0.63;;;;;;;10.94;100.00;98702.59;5113028;28;20249;-58
2022/11/19 07:09:34;;;;;;;1.03;1.03;;;;;;;10.97;100.00;98707.47;5113112;28;20305;-58
2022/11/19 07:12:00;;;;;;;1.30;1.20;;;;;;;11.01;100.00;98724.16;5113063;28;20205;-65
2022/11/19 07:14:27;;;;;;;1.10;1.00;;;;;;;11.03;100.00;98722.31;5112932;27;20217;-58
2022/11/19 07:16:55;;;;;;;2.23;1.10;;;;;;;11.24;100.00;98729.19;5112642;28;20280;-58
2022/11/19 07:19:22;;;;;;;1.50;0.90;;;;;;;11.90;100.00;98731.50;5112797;28;20213;-57
2022/11/19 07:21:49;;;;;;;1.20;0.80;;;;;;;12.30;98.52;98743.53;5112898;28;20720;-58
2022/11/19 07:24:17;;;;;;;0.90;0.90;;;;;;;12.32;96.96;98746.78;5112324;28;20220;-58
2022/11/19 07:26:45;;;;;;;1.03;0.93;;;;;;;12.42;95.43;98747.59;5112480;28;20235;-58
2022/11/19 07:29:14;;;;;;;1.67;0.97;;;;;;;12.56;94.36;98743.84;5112230;28;20221;-64
2022/11/19 07:31:41;;;;;;;0.97;0.97;;;;;;;12.60;93.45;98745.25;5112543;28;20597;-58
2022/11/19 07:34:08;;;;;;;2.67;1.00;;;;;;;12.53;92.99;98728.75;5112533;27;20221;-58
2022/11/19 07:36:35;;;;;;;1.87;1.20;;;;;;;12.46;93.75;98739.53;5112698;28;20232;-58
2022/11/19 07:39:02;;;;;;;1.80;1.27;;;;;;;12.42;94.33;98750.16;5112293;28;20217;-65
2022/11/19 07:44:14;;;;;;;1.37;0.93;;;;;;;12.18;93.46;98763.31;5112243;28;20224;-65
2022/11/19 07:46:40;;;;;;;1.37;0.80;;;;;;;12.75;93.21;98777.25;5112270;28;20741;-58
2022/11/19 07:49:07;;;;;;;0.50;0.40;;;;;;;12.58;90.92;98767.63;5111752;28;20683;-65
2022/11/19 07:51:34;;;;;;;1.00;0.87;;;;;;;12.29;91.99;98768.34;5112166;28;20197;-64
2022/11/19 07:54:01;;;;;;;1.83;1.30;;;;;;;12.14;92.58;98770.44;5111958;28;20217;-65
2022/11/19 07:56:28;;;;;;;1.20;1.10;;;;;;;12.05;92.71;98775.53;5111970;28;20233;-64
2022/11/19 07:58:54;;;;;;;1.67;1.37;;;;;;;12.03;93.11;98777.41;5112127;28;20221;-58
2022/11/19 08:01:24;;;;;;;0.63;0.53;;;;;;;12.14;92.55;98782.47;5111803;28;20202;-64
2022/11/19 08:03:52;;;;;;;0.83;0.80;;;;;;;12.50;91.78;98790.53;5111990;28;20221;-58
2022/11/19 08:06:20;;;;;;;2.43;0.87;;;;;;;12.85;90.30;98796.03;5111767;28;20197;-58
2022/11/19 08:08:47;;;;;;;1.40;1.23;;;;;;;13.05;88.14;98798.63;5111523;28;20224;-58
2022/11/19 08:11:15;;;;;;;0.83;0.83;;;;;;;12.76;89.37;98796.81;5111905;28;20626;-58
2022/11/19 08:13:43;;;;;;;0.67;0.67;;;;;;;12.82;90.50;98796.28;5111720;28;20213;-59
2022/11/19 08:16:11;;;;;;;0.80;0.70;;;;;;;13.60;87.35;98801.50;5111455;28;20727;-58
2022/11/19 08:18:38;;;;;;;1.10;1.00;;;;;;;13.76;86.76;98812.03;5111517;28;20433;-64
2022/11/19 08:21:08;;;;;;;1.53;1.20;;;;;;;14.23;85.42;98809.47;5111766;28;20202;-64
2022/11/19 08:23:35;;;;;;;1.13;1.03;;;;;;;15.02;82.36;98810.72;5111400;28;20722;-58
2022/11/19 08:26:02;;;;;;;2.47;1.20;;;;;;;15.81;79.00;98809.16;5111480;28;20250;-64
2022/11/19 08:28:29;;;;;;;1.23;1.10;;;;;;;16.10;75.61;98798.53;5111663;28;20217;-64
2022/11/19 08:30:57;;;;;;;1.57;1.47;;;;;;;16.49;75.54;98806.63;5111392;28;20214;-63
2022/11/19 08:33:24;;;;;;;1.57;1.17;;;;;;;16.69;73.87;98801.19;5111644;28;20221;-64
2022/11/19 08:35:56;;;;;;;0.87;0.73;;;;;;;16.75;73.76;98798.81;5111150;28;20237;-64
2022/11/19 08:38:22;;;;;;;2.20;1.47;;;;;;;16.27;72.36;98794.25;5111062;28;20309;-59
2022/11/19 08:40:52;;;;;;;1.90;1.13;;;;;;;16.82;70.66;98811.91;5111404;27;20193;-58
2022/11/19 08:43:18;;;;;;;4.63;1.63;;;;;;;16.00;70.82;98821.84;5111016;28;20308;-64
2022/11/19 08:45:53;;;;;;;1.20;0.90;;;;;;;16.04;72.73;98822.34;5111114;28;20249;-59
2022/11/19 08:48:19;;;;;;;1.13;0.90;;;;;;;16.16;72.78;98825.47;5111013;28;20678;-58
2022/11/19 08:50:46;;;;;;;3.03;1.37;;;;;;;16.90;73.47;98806.78;5111247;28;20193;-64
2022/11/19 08:53:14;;;;;;;1.17;1.03;;;;;;;17.32;70.03;98808.44;5111043;28;20697;-58
2022/11/19 08:55:41;;;;;;;1.97;1.47;;;;;;;16.96;69.84;98806.13;5110817;28;20229;-64
2022/11/19 08:58:08;;;;;;;1.73;1.07;;;;;;;17.45;69.27;98807.94;5110619;27;20227;-58
2022/11/19 09:00:36;;;;;;;1.67;1.30;;;;;;;18.04;63.93;98812.94;5110799;28;20197;-59
2022/11/19 09:03:03;;;;;;;1.30;0.97;;;;;;;17.67;62.06;98816.84;5110836;28;20690;-65
2022/11/19 09:05:30;;;;;;;1.03;0.90;;;;;;;17.35;64.24;98822.81;5110805;28;20748;-60
2022/11/19 09:07:57;;;;;;;1.97;1.30;;;;;;;17.42;63.80;98829.78;5110223;28;20216;-58
2022/11/19 09:10:25;;;;;;;1.10;1.00;;;;;;;17.04;67.04;98826.00;5110696;27;20213;-58
2022/11/19 09:12:52;;;;;;;2.00;1.13;;;;;;;17.10;68.02;98840.03;5110602;28;20208;-64
2022/11/19 09:15:20;;;;;;;2.53;1.83;;;;;;;16.56;68.86;98842.13;5110422;28;20224;-59
2022/11/19 09:17:46;;;;;;;1.30;1.20;;;;;;;16.48;70.03;98838.53;5110361;28;20224;-60
2022/11/19 09:20:14;;;;;;;1.67;1.10;;;;;;;16.29;69.63;98859.41;5110525;28;20201;-58
2022/11/19 09:22:40;;;;;;;1.00;0.90;;;;;;;17.08;70.00;98847.16;5110296;28;20207;-64
2022/11/19 09:25:08;;;;;;;1.50;1.20;;;;;;;17.15;66.13;98863.63;5110553;28;20631;-64
2022/11/19 09:27:38;;;;;;;1.40;1.10;;;;;;;17.30;65.87;98862.03;5110216;28;20292;-64
2022/11/19 09:30:08;;;;;;;1.50;1.20;;;;;;;17.14;67.16;98851.69;5110087;28;20743;-65
2022/11/19 09:32:35;;;;;;;1.27;1.10;;;;;;;17.27;65.55;98846.84;5110311;28;20210;-58
2022/11/19 09:35:02;;;;;;;1.77;1.17;;;;;;;16.89;68.62;98843.88;5110428;28;20581;-64
2022/11/19 09:37:32;;;;;;;1.20;1.07;;;;;;;16.84;68.37;98830.66;5110225;28;20234;-64
2022/11/19 09:39:59;;;;;;;1.40;1.30;;;;;;;16.86;68.17;98833.06;5110439;28;20251;-58
2022/11/19 09:42:35;;;;;;;1.47;1.03;;;;;;;16.65;68.65;98825.72;5110057;28;20642;-59
2022/11/19 09:45:18;;;;;;;2.07;1.27;;;;;;;17.27;65.27;98827.97;5110332;28;20188;-64
2022/11/19 09:48:04;;;;;;;1.43;1.03;;;;;;;17.52;63.43;98821.06;5110203;28;20430;-64
2022/11/19 09:50:36;;;;;;;1.83;1.17;;;;;;;17.38;64.32;98820.72;5110248;28;20195;-65
2022/11/19 09:53:09;;;;;;;1.57;1.20;;;;;;;17.43;64.88;98815.88;5110339;28;20262;-65
2022/11/19 09:55:37;;;;;;;1.60;0.97;;;;;;;17.75;64.86;98811.66;5110033;28;20205;-58
2022/11/19 09:58:11;;;;;;;1.43;1.17;;;;;;;17.74;62.33;98807.44;5110421;28;20280;-59
2022/11/19 10:00:40;;;;;;;1.10;1.00;;;;;;;17.94;61.63;98801.97;5110221;28;20195;-58
2022/11/19 10:03:14;;;;;;;0.87;0.80;;;;;;;18.12;62.50;98794.00;5110460;28;20212;-64
2022/11/19 10:05:55;;;;;;;0.90;0.80;;;;;;;18.68;62.53;98800.72;5110362;28;20622;-64
2022/11/19 10:08:36;;;;;;;3.13;0.97;;;;;;;19.64;57.89;98817.59;5110133;28;20302;-64
2022/11/19 10:11:19;;;;;;;1.17;1.03;;;;;;;19.54;56.13;98817.00;5110198;28;20697;-58
2022/11/19 10:13:57;;;;;;;1.33;1.00;;;;;;;19.85;53.76;98822.13;5110392;28;20230;-64
2022/11/19 10:16:45;;;;;;;2.13;1.37;;;;;;;19.77;58.00;98813.63;5109708;28;20233;-64
2022/11/19 10:19:22;;;;;;;1.17;1.07;;;;;;;19.30;53.43;98825.81;5113556;28;20224;-58
2022/11/19 10:21:54;;;;;;;1.57;1.30;;;;;;;19.65;53.11;98836.59;5113863;28;20198;-64
2022/11/19 10:24:32;;;;;;;1.10;0.90;;;;;;;20.38;54.35;98829.84;5114278;28;20227;-64
2022/11/19 10:27:00;;;;;;;1.10;1.00;;;;;;;20.75;53.83;98821.13;5113765;28;20211;-64
2022/11/19 10:29:29;;;;;;;1.33;1.10;;;;;;;19.85;53.58;98829.09;5113744;28;20275;-64
2022/11/19 10:32:21;;;;;;;1.10;1.00;;;;;;;18.99;54.42;98823.25;5113451;28;20199;-58
2022/11/19 10:34:50;;;;;;;1.20;0.97;;;;;;;18.40;55.32;98828.84;5114100;28;20235;-58
2022/11/19 10:37:21;;;;;;;0.70;0.70;;;;;;;18.52;55.23;98821.50;5113594;28;20587;-64
2022/11/19 10:39:52;;;;;;;1.10;0.93;;;;;;;19.11;56.86;98821.91;5113585;27;20315;-59
2022/11/19 10:42:24;;;;;;;1.27;0.90;;;;;;;18.60;56.23;98813.72;5113512;28;20569;-58
2022/11/19 10:44:55;;;;;;;1.17;1.07;;;;;;;17.90;58.47;98817.00;5113277;27;20217;-58
2022/11/19 10:47:30;;;;;;;2.30;1.10;;;;;;;17.50;60.72;98823.78;5113347;28;20216;-58
2022/11/19 10:49:57;;;;;;;1.57;1.00;;;;;;;17.23;61.21;98819.75;5113261;28;20260;-58
2022/11/19 10:52:30;;;;;;;0.80;0.70;;;;;;;17.27;61.46;98826.19;5113647;27;20256;-64
2022/11/19 10:55:03;;;;;;;0.90;0.90;;;;;;;17.54;59.87;98819.09;5113263;28;20277;-64
2022/11/19 10:57:32;;;;;;;1.87;0.80;;;;;;;17.49;60.37;98821.38;5113200;28;20266;-58
2022/11/19 11:00:00;;;;;;;1.90;1.23;;;;;;;17.52;59.00;98824.44;5113341;28;20299;-64
2022/11/19 11:02:33;;;;;;;1.63;1.07;;;;;;;17.63;61.49;98820.72;5112870;28;20247;-64
2022/11/19 11:05:09;;;;;;;2.10;1.13;;;;;;;17.62;60.73;98814.72;5113171;28;20232;-59
2022/11/19 11:07:56;;;;;;;1.43;1.20;;;;;;;17.29;61.71;98819.09;5113096;28;20203;-64
2022/11/19 11:10:43;;;;;;;1.40;1.30;;;;;;;17.37;62.50;98805.38;5112833;28;20732;-64
2022/11/19 11:16:25;;;;;;;1.03;0.97;;;;;;;16.45;64.91;98800.13;5110218;28;20365;-59
2022/11/19 11:18:58;;;;;;;0.97;0.90;;;;;;;16.13;65.13;98805.16;5112647;27;20236;-58
2022/11/19 11:21:33;;;;;;;1.20;0.93;;;;;;;16.07;66.78;98796.25;5112340;28;20236;-64
2022/11/19 11:24:01;;;;;;;0.97;0.87;;;;;;;16.59;65.60;98787.63;5112673;28;20222;-64
2022/11/19 11:26:29;;;;;;;1.33;1.03;;;;;;;16.70;63.01;98789.91;5112224;28;20233;-64
2022/11/19 11:29:03;;;;;;;0.93;0.77;;;;;;;17.03;63.75;98792.59;5112185;28;20228;-58
2022/11/19 11:31:32;;;;;;;0.97;0.87;;;;;;;17.48;61.77;98811.97;5112066;28;20208;-58
2022/11/19 11:34:02;;;;;;;1.23;1.07;;;;;;;17.38;59.80;98802.63;5112256;28;20719;-64
2022/11/19 11:36:33;;;;;;;0.70;0.70;;;;;;;17.58;61.49;98808.28;5112045;28;20312;-64
2022/11/19 11:39:01;;;;;;;1.40;1.30;;;;;;;17.49;57.42;98808.44;5112311;28;20883;-58
2022/11/19 11:41:41;;;;;;;1.27;1.17;;;;;;;17.67;57.09;98796.16;5112036;27;20200;-58
2022/11/19 11:44:18;;;;;;;2.40;1.30;;;;;;;17.93;57.19;98805.53;5112361;28;20573;-58
2022/11/19 11:46:47;;;;;;;1.53;1.40;;;;;;;17.83;55.19;98806.50;5111917;28;20200;-65
2022/11/19 11:49:25;;;;;;;1.30;1.17;;;;;;;17.81;57.85;98808.44;5112165;28;20277;-65
2022/11/19 11:52:16;;;;;;;0.83;0.83;;;;;;;18.26;57.87;98804.44;5112011;28;20287;-64
2022/11/19 11:55:00;;;;;;;1.80;1.10;;;;;;;18.68;56.77;98805.91;5111929;28;20228;-58
2022/11/19 11:57:28;;;;;;;1.20;0.97;;;;;;;18.53;55.06;98807.59;5111737;28;20792;-58
2022/11/19 11:59:55;;;;;;;1.27;0.90;;;;;;;18.32;57.41;98802.97;5111678;28;20274;-64
2022/11/19 12:02:28;;;;;;;1.50;1.10;;;;;;;18.04;55.82;98802.59;5111830;28;20232;-58
2022/11/19 12:05:00;;;;;;;3.57;1.00;;;;;;;17.97;57.41;98810.19;5111760;28;20295;-58